createdAt,value
2019-05-13T00:00:45.078Z,56.90
2019-05-13T00:03:18.478Z,57.10
2019-05-13T00:05:53.621Z,57.40
2019-05-13T00:08:27.043Z,57.60
2019-05-13T00:11:00.468Z,58.70
2019-05-13T00:13:33.961Z,58.70
2019-05-13T00:16:07.387Z,59.00
2019-05-13T00:18:40.796Z,59.30
2019-05-13T00:21:14.291Z,59.50
2019-05-13T00:23:47.704Z,59.60
2019-05-13T00:26:21.122Z,59.60
2019-05-13T00:28:54.536Z,59.70
2019-05-13T00:31:27.978Z,59.70
2019-05-13T00:34:03.464Z,59.70
2019-05-13T00:36:36.524Z,59.90
2019-05-13T00:39:09.931Z,60.10
2019-05-13T00:41:44.290Z,60.20
2019-05-13T00:44:18.042Z,60.10
2019-05-13T00:46:53.744Z,60.40
2019-05-13T00:49:26.594Z,60.50
2019-05-13T00:52:00.018Z,60.50
2019-05-13T00:54:34.196Z,60.40
2019-05-13T00:57:07.845Z,60.40
2019-05-13T00:59:41.324Z,60.40
2019-05-13T01:02:14.743Z,60.50
2019-05-13T01:04:48.155Z,60.50
2019-05-13T01:07:27.884Z,60.70
2019-05-13T01:09:56.723Z,60.70
2019-05-13T01:12:30.144Z,60.80
2019-05-13T01:15:05.791Z,60.70
2019-05-13T01:17:39.208Z,60.60
2019-05-13T01:20:14.390Z,60.70
2019-05-13T01:22:48.169Z,60.90
2019-05-13T01:25:21.575Z,60.90
2019-05-13T01:27:55.002Z,61.00
2019-05-13T01:30:28.412Z,61.30
2019-05-13T01:33:04.078Z,61.10
2019-05-13T01:35:37.029Z,61.20
2019-05-13T01:38:10.439Z,61.40
2019-05-13T01:40:44.154Z,61.50
2019-05-13T01:43:17.955Z,61.40
2019-05-13T01:45:53.537Z,61.40
2019-05-13T01:48:26.503Z,61.40
2019-05-13T01:50:59.913Z,61.60
2019-05-13T01:53:33.699Z,61.60
2019-05-13T01:56:07.523Z,61.70
2019-05-13T01:58:40.956Z,61.70
2019-05-13T02:01:14.392Z,61.60
2019-05-13T02:03:48.072Z,61.70
2019-05-13T02:06:21.487Z,61.40
2019-05-13T02:08:54.918Z,61.50
2019-05-13T02:11:28.336Z,61.20
2019-05-13T02:14:01.755Z,61.20
2019-05-13T02:16:35.176Z,61.00
2019-05-13T02:19:08.667Z,61.00
2019-05-13T02:21:43.938Z,61.00
2019-05-13T02:24:17.224Z,61.10
2019-05-13T02:26:50.656Z,61.10
2019-05-13T02:29:24.507Z,61.30
2019-05-13T02:31:58.160Z,61.40
2019-05-13T02:34:32.346Z,61.80
2019-05-13T02:37:05.949Z,61.80
2019-05-13T02:39:42.541Z,62.00
2019-05-13T02:42:14.514Z,62.10
2019-05-13T02:44:47.923Z,62.10
2019-05-13T02:47:22.581Z,62.70
2019-05-13T02:50:00.413Z,62.10
2019-05-13T02:52:33.468Z,62.00
2019-05-13T02:55:06.583Z,62.10
2019-05-13T02:57:43.275Z,62.20
2019-05-13T03:00:16.889Z,62.20
2019-05-13T03:02:52.385Z,62.20
2019-05-13T03:05:25.503Z,62.80
2019-05-13T03:07:58.937Z,62.50
2019-05-13T03:10:33.148Z,62.60
2019-05-13T03:13:06.644Z,62.70
2019-05-13T03:15:44.377Z,62.60
2019-05-13T03:18:22.232Z,62.60
2019-05-13T03:20:53.709Z,62.60
2019-05-13T03:23:27.141Z,62.90
2019-05-13T03:26:02.811Z,62.90
2019-05-13T03:28:35.713Z,62.80
2019-05-13T03:31:09.130Z,62.90
2019-05-13T03:33:46.585Z,63.10
2019-05-13T03:36:18.246Z,63.10
2019-05-13T03:39:04.476Z,63.10
2019-05-13T03:41:29.220Z,63.30
2019-05-13T03:44:05.732Z,63.40
2019-05-13T03:46:42.570Z,63.50
2019-05-13T03:49:17.541Z,63.50
2019-05-13T03:51:53.429Z,63.60
2019-05-13T03:54:26.932Z,63.70
2019-05-13T03:57:03.591Z,63.80
2019-05-13T03:59:35.686Z,64.00
2019-05-13T04:02:09.268Z,63.80
2019-05-13T04:04:44.395Z,63.60
2019-05-13T04:07:18.341Z,63.50
2019-05-13T04:09:52.489Z,63.30
2019-05-13T04:12:28.517Z,62.80
2019-05-13T04:15:03.611Z,62.70
2019-05-13T04:17:36.924Z,62.80
2019-05-13T04:20:12.665Z,62.90
2019-05-13T04:22:46.004Z,62.80
2019-05-13T04:25:22.811Z,62.80
2019-05-13T04:27:54.635Z,62.80
2019-05-13T04:30:28.150Z,62.80
2019-05-13T04:33:02.714Z,62.10
2019-05-13T04:35:37.025Z,62.50
2019-05-13T04:38:13.014Z,62.50
2019-05-13T04:40:45.648Z,62.70
2019-05-13T04:43:19.076Z,62.80
2019-05-13T04:45:52.946Z,62.90
2019-05-13T04:48:26.348Z,62.90
2019-05-13T04:51:02.735Z,62.60
2019-05-13T04:53:34.905Z,62.40
2019-05-13T04:56:09.205Z,62.60
2019-05-13T04:58:43.264Z,62.50
2019-05-13T05:01:48.892Z,62.20
2019-05-13T05:04:30.551Z,62.20
2019-05-13T05:07:13.660Z,62.40
2019-05-13T05:10:15.865Z,62.60
2019-05-13T05:12:37.321Z,62.80
2019-05-13T05:15:47.208Z,62.60
2019-05-13T05:18:47.697Z,62.10
2019-05-13T05:21:27.016Z,61.90
2019-05-13T05:24:27.540Z,61.50
2019-05-13T05:27:31.572Z,62.00
2019-05-13T05:30:07.635Z,61.80
2019-05-13T05:33:16.175Z,61.80
2019-05-13T05:36:18.131Z,61.80
2019-05-13T05:39:12.168Z,61.80
2019-05-13T05:41:47.332Z,61.30
2019-05-13T05:44:23.852Z,61.30
2019-05-13T05:47:02.626Z,61.00
2019-05-13T05:49:37.624Z,60.50
2019-05-13T05:52:12.409Z,60.10
2019-05-13T05:54:51.389Z,59.50
2019-05-13T05:57:25.891Z,59.20
2019-05-13T06:00:02.305Z,59.20
2019-05-13T06:02:42.278Z,58.90
2019-05-13T06:05:15.233Z,58.20
2019-05-13T06:07:48.684Z,57.80
2019-05-13T06:10:22.621Z,57.60
2019-05-13T06:12:56.899Z,57.20
2019-05-13T06:15:31.464Z,57.00
2019-05-13T06:18:05.131Z,56.90
2019-05-13T06:20:38.549Z,56.70
2019-05-13T06:23:11.997Z,55.70
2019-05-13T06:25:45.483Z,55.20
2019-05-13T06:28:19.000Z,55.00
2019-05-13T06:30:52.477Z,54.80
2019-05-13T06:33:25.927Z,54.70
2019-05-13T06:36:01.220Z,54.60
2019-05-13T06:38:34.847Z,54.20
2019-05-13T06:41:12.296Z,54.10
2019-05-13T06:43:43.423Z,53.90
2019-05-13T06:46:16.865Z,53.50
2019-05-13T06:48:52.076Z,53.20
2019-05-13T06:51:25.984Z,52.90
2019-05-13T06:53:59.463Z,52.80
2019-05-13T06:56:32.899Z,52.50
2019-05-13T06:59:06.334Z,52.30
2019-05-13T07:01:42.197Z,52.10
2019-05-13T07:04:14.904Z,51.70
2019-05-13T07:06:48.330Z,51.30
2019-05-13T07:09:21.785Z,50.90
2019-05-13T07:11:56.996Z,50.70
2019-05-13T07:14:32.351Z,50.50
2019-05-13T07:17:05.755Z,50.20
2019-05-13T07:19:41.254Z,49.90
2019-05-13T07:22:14.319Z,49.90
2019-05-13T07:24:47.752Z,49.60
2019-05-13T07:27:22.942Z,49.30
2019-05-13T07:29:56.319Z,49.30
2019-05-13T07:32:31.537Z,49.30
2019-05-13T07:35:06.519Z,49.20
2019-05-13T07:37:42.438Z,49.10
2019-05-13T07:40:16.037Z,49.00
2019-05-13T07:42:49.524Z,48.90
2019-05-13T07:45:22.948Z,48.80
2019-05-13T07:47:56.382Z,48.70
2019-05-13T07:50:32.238Z,48.60
2019-05-13T07:53:05.467Z,48.40
2019-05-13T07:55:38.883Z,48.50
2019-05-13T07:58:12.311Z,48.40
2019-05-13T08:00:45.759Z,48.50
2019-05-13T08:03:21.413Z,48.40
2019-05-13T08:05:54.460Z,48.30
2019-05-13T08:08:27.913Z,48.40
2019-05-13T08:11:01.400Z,48.10
2019-05-13T08:13:34.827Z,48.20
2019-05-13T08:16:08.241Z,48.20
2019-05-13T08:18:43.810Z,48.10
2019-05-13T08:21:16.808Z,48.10
2019-05-13T08:23:52.532Z,48.00
2019-05-13T08:26:25.417Z,47.90
2019-05-13T08:29:03.153Z,47.50
2019-05-13T08:31:34.083Z,47.90
2019-05-13T08:34:07.543Z,47.90
2019-05-13T08:36:42.706Z,47.80
2019-05-13T08:39:16.115Z,47.80
2019-05-13T08:41:51.594Z,47.70
2019-05-13T08:44:24.699Z,47.50
2019-05-13T08:47:02.627Z,47.90
2019-05-13T08:49:35.165Z,47.10
2019-05-13T08:52:08.589Z,47.20
2019-05-13T08:54:42.153Z,47.10
2019-05-13T08:57:15.599Z,47.10
2019-05-13T08:59:51.300Z,46.90
2019-05-13T09:02:24.173Z,47.00
2019-05-13T09:04:57.591Z,46.80
2019-05-13T09:07:32.086Z,46.60
2019-05-13T09:10:07.464Z,46.40
2019-05-13T09:12:43.237Z,46.30
2019-05-13T09:15:16.027Z,46.00
2019-05-13T09:17:51.646Z,46.00
2019-05-13T09:20:24.591Z,46.30
2019-05-13T09:22:58.004Z,45.30
2019-05-13T09:25:32.089Z,44.90
2019-05-13T09:28:05.707Z,44.90
2019-05-13T09:30:39.203Z,44.80
2019-05-13T09:33:12.627Z,44.30
2019-05-13T09:35:49.670Z,44.00
2019-05-13T09:38:22.168Z,43.90
2019-05-13T09:40:55.800Z,43.50
2019-05-13T09:43:31.414Z,43.10
2019-05-13T09:46:04.375Z,42.80
2019-05-13T09:48:37.790Z,42.80
2019-05-13T09:51:12.363Z,42.90
2019-05-13T09:53:46.319Z,42.80
2019-05-13T09:56:22.217Z,42.60
2019-05-13T09:58:54.910Z,42.10
2019-05-13T10:01:28.380Z,41.80
2019-05-13T10:04:02.937Z,41.70
2019-05-13T10:06:38.750Z,41.30
2019-05-13T10:09:12.765Z,40.90
2019-05-13T10:11:46.371Z,40.60
2019-05-13T10:14:19.794Z,39.20
2019-05-13T10:16:53.207Z,37.70
2019-05-13T10:19:26.631Z,36.90
2019-05-13T10:22:01.064Z,36.60
2019-05-13T10:24:34.735Z,36.50
2019-05-13T10:27:08.513Z,36.70
2019-05-13T10:29:42.790Z,36.70
2019-05-13T10:32:21.751Z,37.10
2019-05-13T10:34:54.553Z,37.10
2019-05-13T10:37:28.104Z,36.40
2019-05-13T10:40:02.385Z,35.90
2019-05-13T10:42:36.347Z,35.70
2019-05-13T10:45:12.422Z,35.60
2019-05-13T10:47:45.073Z,35.30
2019-05-13T10:50:18.537Z,35.00
2019-05-13T10:52:52.332Z,34.50
2019-05-13T10:55:25.943Z,34.10
2019-05-13T10:58:01.714Z,33.80
2019-05-13T11:00:51.708Z,33.80
2019-05-13T11:03:24.880Z,34.00
2019-05-13T11:05:58.370Z,34.40
2019-05-13T11:08:33.124Z,34.60
2019-05-13T11:11:06.929Z,34.20
2019-05-13T11:13:52.195Z,33.70
2019-05-13T11:16:15.560Z,32.70
2019-05-13T11:18:51.674Z,32.30
2019-05-13T11:21:24.180Z,32.30
2019-05-13T11:23:57.612Z,31.60
2019-05-13T11:26:35.903Z,30.50
2019-05-13T11:29:06.176Z,29.60
2019-05-13T11:31:42.501Z,29.00
2019-05-13T11:34:14.748Z,28.80
2019-05-13T11:36:48.747Z,28.60
2019-05-13T11:39:22.405Z,28.80
2019-05-13T11:41:55.835Z,28.20
2019-05-13T11:44:31.979Z,28.10
2019-05-13T11:47:04.467Z,28.00
2019-05-13T11:49:37.884Z,28.10
2019-05-13T11:52:12.125Z,28.20
2019-05-13T11:54:45.712Z,28.30
2019-05-13T11:57:19.151Z,28.30
2019-05-13T11:59:52.977Z,28.40
2019-05-13T12:02:26.544Z,28.50
2019-05-13T12:05:03.607Z,28.60
2019-05-13T12:07:35.120Z,28.90
2019-05-13T12:10:12.272Z,29.20
2019-05-13T12:12:44.367Z,29.50
2019-05-13T12:15:28.873Z,29.70
2019-05-13T12:17:53.056Z,29.70
2019-05-13T12:20:26.543Z,29.70
2019-05-13T12:23:03.349Z,29.70
2019-05-13T12:25:35.114Z,29.90
2019-05-13T12:28:08.543Z,30.00
2019-05-13T12:30:41.987Z,30.10
2019-05-13T12:33:15.463Z,30.20
2019-05-13T12:35:52.553Z,30.30
2019-05-13T12:38:24.052Z,30.20
2019-05-13T12:40:57.523Z,30.30
2019-05-13T12:43:31.989Z,30.50
2019-05-13T12:46:05.740Z,30.70
2019-05-13T12:48:39.177Z,30.50
2019-05-13T12:51:13.320Z,30.50
2019-05-13T12:53:47.194Z,30.40
2019-05-13T12:56:23.500Z,30.00
2019-05-13T12:58:56.139Z,29.50
2019-05-13T13:01:31.832Z,29.10
2019-05-13T13:04:04.795Z,28.70
2019-05-13T13:06:41.595Z,28.60
2019-05-13T13:09:13.469Z,28.40
2019-05-13T13:11:46.906Z,28.20
2019-05-13T13:14:20.318Z,28.00
2019-05-13T13:16:54.421Z,28.00
2019-05-13T13:19:28.223Z,28.00
2019-05-13T13:22:04.615Z,27.50
2019-05-13T13:24:36.849Z,27.50
2019-05-13T13:27:19.006Z,27.30
2019-05-13T13:29:45.890Z,27.30
2019-05-13T13:32:19.320Z,27.10
2019-05-13T13:34:54.715Z,27.20
2019-05-13T13:37:27.895Z,27.20
2019-05-13T13:40:03.299Z,27.10
2019-05-13T13:42:36.491Z,27.00
2019-05-13T13:45:10.496Z,26.50
2019-05-13T13:47:45.373Z,26.00
2019-05-13T13:50:19.207Z,26.00
2019-05-13T13:52:52.981Z,26.00
2019-05-13T13:55:26.832Z,26.20
2019-05-13T13:58:02.311Z,26.10
2019-05-13T14:00:47.429Z,26.10
2019-05-13T14:03:12.409Z,26.20
2019-05-13T14:05:45.705Z,26.30
2019-05-13T14:08:21.534Z,26.20
2019-05-13T14:10:54.357Z,25.90
2019-05-13T14:13:27.792Z,25.70
2019-05-13T14:16:02.046Z,25.30
2019-05-13T14:18:35.683Z,25.20
2019-05-13T14:21:09.095Z,25.60
2019-05-13T14:23:42.731Z,25.20
2019-05-13T14:26:16.193Z,24.20
2019-05-13T14:28:52.916Z,23.80
2019-05-13T14:31:24.844Z,23.80
2019-05-13T14:33:58.273Z,23.80
2019-05-13T14:36:31.700Z,23.50
2019-05-13T14:39:07.155Z,23.10
2019-05-13T14:41:42.564Z,22.60
2019-05-13T14:44:15.804Z,22.20
2019-05-13T14:46:49.215Z,21.80
2019-05-13T14:49:22.651Z,21.60
2019-05-13T14:51:56.504Z,21.70
2019-05-13T14:54:31.386Z,21.90
2019-05-13T14:57:05.083Z,21.90
2019-05-13T14:59:38.525Z,21.70
2019-05-13T15:02:12.137Z,21.20
2019-05-13T15:04:45.649Z,21.00
2019-05-13T15:07:21.663Z,21.10
2019-05-13T15:09:54.680Z,21.20
2019-05-13T15:12:28.100Z,21.20
2019-05-13T15:15:01.671Z,21.40
2019-05-13T15:17:35.799Z,21.50
2019-05-13T15:20:12.128Z,21.80
2019-05-13T15:22:45.199Z,22.00
2019-05-13T15:25:18.627Z,22.10
2019-05-13T15:27:53.106Z,22.20
2019-05-13T15:30:26.516Z,22.50
2019-05-13T15:33:01.790Z,22.70
2019-05-13T15:35:35.091Z,22.80
2019-05-13T15:38:08.503Z,23.00
2019-05-13T15:40:41.955Z,23.20
2019-05-13T15:43:15.359Z,23.60
2019-05-13T15:45:51.154Z,24.00
2019-05-13T15:48:23.927Z,24.70
2019-05-13T15:50:57.356Z,25.00
2019-05-13T15:53:32.116Z,25.30
2019-05-13T15:56:05.779Z,25.50
2019-05-13T15:58:41.476Z,25.80
2019-05-13T16:01:14.349Z,26.00
2019-05-13T16:03:47.763Z,26.10
2019-05-13T16:06:21.190Z,26.20
2019-05-13T16:08:54.603Z,26.10
2019-05-13T16:11:28.608Z,26.00
2019-05-13T16:14:02.259Z,26.00
2019-05-13T16:16:35.731Z,25.80
2019-05-13T16:19:09.615Z,25.80
2019-05-13T16:21:43.051Z,25.90
2019-05-13T16:24:16.576Z,26.00
2019-05-13T16:26:52.151Z,26.20
2019-05-13T16:29:25.159Z,26.10
2019-05-13T16:31:58.570Z,26.10
2019-05-13T16:34:32.138Z,25.90
2019-05-13T16:37:05.791Z,26.00
2019-05-13T16:39:41.424Z,26.00
2019-05-13T16:42:14.497Z,26.10
2019-05-13T16:44:48.383Z,26.30
2019-05-13T16:47:21.822Z,26.30
2019-05-13T16:49:55.235Z,26.50
2019-05-13T16:52:28.664Z,26.70
2019-05-13T16:55:02.711Z,28.00
2019-05-13T16:57:36.491Z,28.20
2019-05-13T17:00:11.846Z,28.30
2019-05-13T17:02:45.291Z,28.10
2019-05-13T17:05:18.762Z,28.20
2019-05-13T17:07:52.228Z,28.40
2019-05-13T17:10:25.626Z,28.60
2019-05-13T17:13:02.645Z,28.80
2019-05-13T17:15:34.246Z,28.30
2019-05-13T17:18:11.887Z,27.80
2019-05-13T17:20:43.023Z,27.50
2019-05-13T17:23:16.462Z,27.30
2019-05-13T17:25:51.986Z,27.10
2019-05-13T17:28:25.100Z,27.10
2019-05-13T17:30:58.536Z,27.20
2019-05-13T17:33:32.140Z,27.30
2019-05-13T17:36:05.578Z,27.40
2019-05-13T17:38:39.015Z,27.30
2019-05-13T17:41:12.479Z,27.20
2019-05-13T17:43:45.943Z,27.00
2019-05-13T17:46:21.355Z,27.00
2019-05-13T17:48:54.512Z,26.90
2019-05-13T17:51:27.932Z,26.90
2019-05-13T17:54:01.548Z,27.00
2019-05-13T17:56:35.063Z,27.00
2019-05-13T17:59:08.507Z,27.00
2019-05-13T18:01:41.939Z,27.10
2019-05-13T18:04:15.355Z,27.10
2019-05-13T18:06:48.780Z,27.10
2019-05-13T18:09:22.426Z,27.20
2019-05-13T18:11:56.186Z,27.40
2019-05-13T18:14:29.599Z,27.40
2019-05-13T18:17:03.032Z,27.50
2019-05-13T18:19:36.443Z,27.60
2019-05-13T18:22:11.440Z,27.60
2019-05-13T18:24:45.019Z,27.70
2019-05-13T18:27:18.467Z,27.70
2019-05-13T18:29:51.899Z,27.90
2019-05-13T18:32:25.327Z,28.30
2019-05-13T18:34:58.739Z,27.90
2019-05-13T18:37:32.187Z,28.00
2019-05-13T18:40:06.268Z,28.10
2019-05-13T18:42:42.101Z,28.20
2019-05-13T18:45:15.731Z,28.40
2019-05-13T18:47:51.028Z,28.60
2019-05-13T18:50:24.307Z,28.80
2019-05-13T18:52:57.736Z,29.00
2019-05-13T18:55:31.219Z,29.10
2019-05-13T18:58:04.659Z,29.20
2019-05-13T19:00:38.083Z,29.40
2019-05-13T19:03:12.426Z,29.50
2019-05-13T19:05:46.309Z,29.70
2019-05-13T19:08:21.420Z,29.80
2019-05-13T19:10:54.996Z,30.00
2019-05-13T19:13:28.438Z,30.10
2019-05-13T19:16:02.515Z,30.40
2019-05-13T19:18:36.231Z,30.80
2019-05-13T19:21:09.647Z,31.20
2019-05-13T19:23:43.080Z,31.50
2019-05-13T19:26:16.494Z,31.80
2019-05-13T19:28:51.634Z,32.00
2019-05-13T19:31:25.051Z,32.20
2019-05-13T19:33:58.477Z,32.40
2019-05-13T19:36:31.898Z,32.80
2019-05-13T19:39:07.179Z,33.00
2019-05-13T19:41:42.365Z,33.40
2019-05-13T19:44:15.855Z,33.50
2019-05-13T19:46:49.267Z,33.60
2019-05-13T19:49:32.539Z,33.50
2019-05-13T19:51:57.898Z,33.40
2019-05-13T19:54:31.523Z,33.20
2019-05-13T19:57:05.108Z,33.20
2019-05-13T19:59:38.539Z,33.60
2019-05-13T20:02:12.409Z,33.80
2019-05-13T20:04:46.228Z,34.10
2019-05-13T20:07:22.313Z,34.50
2019-05-13T20:09:54.808Z,35.00
2019-05-13T20:12:28.219Z,35.40
2019-05-13T20:15:01.657Z,35.80
2019-05-13T20:17:35.087Z,36.10
2019-05-13T20:20:08.644Z,36.40
2019-05-13T20:22:42.429Z,36.80
2019-05-13T20:25:15.977Z,37.40
2019-05-13T20:27:51.379Z,37.90
2019-05-13T20:30:24.606Z,38.30
2019-05-13T20:32:58.040Z,38.70
2019-05-13T20:35:31.446Z,38.90
2019-05-13T20:38:04.875Z,39.20
2019-05-13T20:40:38.386Z,39.60
2019-05-13T20:43:12.067Z,40.00
2019-05-13T20:45:45.610Z,40.60
2019-05-13T20:48:21.094Z,41.10
2019-05-13T20:50:54.175Z,41.30
2019-05-13T20:53:27.597Z,41.50
2019-05-13T20:56:01.808Z,41.90
2019-05-13T20:58:35.527Z,42.20
2019-05-13T21:01:11.066Z,42.10
2019-05-13T21:03:44.115Z,42.50
2019-05-13T21:06:17.535Z,42.90
2019-05-13T21:08:52.203Z,43.00
2019-05-13T21:11:25.971Z,43.10
2019-05-13T21:14:01.158Z,43.10
2019-05-13T21:16:34.534Z,43.50
2019-05-13T21:19:07.980Z,43.70
2019-05-13T21:21:41.698Z,43.80
2019-05-13T21:24:15.491Z,44.00
2019-05-13T21:26:51.081Z,44.30
2019-05-13T21:29:24.102Z,44.70
2019-05-13T21:31:57.505Z,44.90
2019-05-13T21:34:31.617Z,45.00
2019-05-13T21:37:05.319Z,44.90
2019-05-13T21:39:41.103Z,44.90
2019-05-13T21:42:13.951Z,45.10
2019-05-13T21:44:47.379Z,45.00
2019-05-13T21:47:21.998Z,45.40
2019-05-13T21:49:55.818Z,45.50
2019-05-13T21:52:29.235Z,45.80
2019-05-13T21:55:02.643Z,45.80
2019-05-13T21:57:36.061Z,46.10
2019-05-13T22:00:11.669Z,46.40
2019-05-13T22:02:45.082Z,46.80
2019-05-13T22:05:18.510Z,47.00
2019-05-13T22:07:51.923Z,47.10
2019-05-13T22:10:25.352Z,47.50
2019-05-13T22:13:01.280Z,47.70
2019-05-13T22:15:33.995Z,47.70
2019-05-13T22:18:07.413Z,48.00
2019-05-13T22:20:49.748Z,48.10
2019-05-13T22:23:15.979Z,48.20
2019-05-13T22:25:51.444Z,48.30
2019-05-13T22:28:24.563Z,48.40
2019-05-13T22:30:57.983Z,48.60
2019-05-13T22:33:32.476Z,48.60
2019-05-13T22:36:06.205Z,48.90
2019-05-13T22:38:39.642Z,49.20
2019-05-13T22:41:13.071Z,49.40
2019-05-13T22:43:55.744Z,49.70
2019-05-13T22:46:21.644Z,49.90
2019-05-13T22:48:55.047Z,50.00
2019-05-13T22:51:28.476Z,50.20
2019-05-13T22:54:01.897Z,50.40
2019-05-13T22:56:35.354Z,51.40
2019-05-13T22:59:08.811Z,51.70
2019-05-13T23:01:42.226Z,51.70
2019-05-13T23:04:15.649Z,52.40
2019-05-13T23:06:49.059Z,52.00
2019-05-13T23:09:22.488Z,52.00
2019-05-13T23:11:55.892Z,52.00
2019-05-13T23:14:29.311Z,52.00
2019-05-13T23:17:02.727Z,52.10
2019-05-13T23:19:36.155Z,52.20
2019-05-13T23:22:11.888Z,52.20
2019-05-13T23:24:44.711Z,52.40
2019-05-13T23:27:18.150Z,52.70
2019-05-13T23:29:51.761Z,52.90
2019-05-13T23:32:25.397Z,53.60
2019-05-13T23:34:58.889Z,53.10
2019-05-13T23:37:32.295Z,53.00
2019-05-13T23:40:08.746Z,53.20
2019-05-13T23:42:42.156Z,53.30
2019-05-13T23:45:15.719Z,53.60
2019-05-13T23:47:50.962Z,53.80
2019-05-13T23:50:24.287Z,54.00
2019-05-13T23:52:57.692Z,54.10
2019-05-13T23:55:32.196Z,54.20
2019-05-13T23:58:05.999Z,54.30
